CYA weather

Les Cayes Airport
Les Cayes, Sud Department, Haiti

Public forecast

Using degrees Celsius for public forecast. Weather courtesy of forecast.io.

METAR (pilot weather report)

Closest report is Toussaint Louverture International Airport, 87.2 nm (161.5 km) ENE. Retrieved 2019/03/26 21:00 UTC (60 minutes ago):

MTPP 262100Z 29016KT 9999 SCT026CB 29/22 Q1010 A2984 RMK/CB/SSW

TAF (pilot weather forecast)

Closest forecast is Toussaint Louverture International Airport, 87.2 nm (161.5 km) ENE. Retrieved 2019/03/26 18:18 UTC (4 hours ago):

TAF MTPP 261700Z 2618/2718 27012KT 9000 FEW026CB SCT030 TEMPO 2622/2704 4000 TSRA SCT018CB BKN035 BECMG 2706/2708 VRB02KT 7000 NSW FEW020 SCT040 FM271300 12006KT 9999 FEW024